createdAt,value
2019-04-03T00:01:30.734Z,1.47
2019-04-03T00:04:04.945Z,1.17
2019-04-03T00:06:38.470Z,1.50
2019-04-03T00:09:12.085Z,1.10
2019-04-03T00:11:45.788Z,1.22
2019-04-03T00:14:18.991Z,1.30
2019-04-03T00:16:52.370Z,1.70
2019-04-03T00:19:25.691Z,1.35
2019-04-03T00:21:59.063Z,1.67
2019-04-03T00:24:32.319Z,1.40
2019-04-03T00:27:05.817Z,1.62
2019-04-03T00:29:39.255Z,1.65
2019-04-03T00:32:12.671Z,1.32
2019-04-03T00:34:45.995Z,1.40
2019-04-03T00:37:19.369Z,1.70
2019-04-03T00:39:54.450Z,1.60
2019-04-03T00:42:27.760Z,1.40
2019-04-03T00:45:01.265Z,1.80
2019-04-03T00:47:34.673Z,1.47
2019-04-03T00:50:08.070Z,1.80
2019-04-03T00:52:41.244Z,1.70
2019-04-03T00:55:14.569Z,1.25
2019-04-03T00:57:48.147Z,1.30
2019-04-03T01:00:21.456Z,1.30
2019-04-03T01:02:55.037Z,0.90
2019-04-03T01:05:29.063Z,1.50
2019-04-03T01:08:02.713Z,0.85
2019-04-03T01:10:36.320Z,0.93
2019-04-03T01:13:09.860Z,0.70
2019-04-03T01:15:43.437Z,0.82
2019-04-03T01:18:17.032Z,0.90
2019-04-03T01:20:50.640Z,0.50
2019-04-03T01:23:23.970Z,0.70
2019-04-03T01:25:57.439Z,0.40
2019-04-03T01:28:30.841Z,0.50
2019-04-03T01:31:04.031Z,0.47
2019-04-03T01:33:37.441Z,0.47
2019-04-03T01:36:10.947Z,0.50
2019-04-03T01:38:44.138Z,0.28
2019-04-03T01:41:21.230Z,0.42
2019-04-03T01:43:54.395Z,0.40
2019-04-03T01:46:28.167Z,0.40
2019-04-03T01:49:01.916Z,0.47
2019-04-03T01:51:35.225Z,0.53
2019-04-03T01:54:08.655Z,0.40
2019-04-03T01:56:42.429Z,0.50
2019-04-03T01:59:16.990Z,0.30
2019-04-03T02:01:50.325Z,0.53
2019-04-03T02:04:23.940Z,0.20
2019-04-03T02:06:57.333Z,0.30
2019-04-03T02:09:31.132Z,0.30
2019-04-03T02:12:04.489Z,0.60
2019-04-03T02:14:38.019Z,0.37
2019-04-03T02:17:11.358Z,0.23
2019-04-03T02:19:44.993Z,0.40
2019-04-03T02:22:18.336Z,0.30
2019-04-03T02:24:52.059Z,0.30
2019-04-03T02:27:26.038Z,0.30
2019-04-03T02:29:59.350Z,0.40
2019-04-03T02:32:32.899Z,0.30
2019-04-03T02:35:08.235Z,0.30
2019-04-03T02:37:41.864Z,0.40
2019-04-03T02:40:15.055Z,0.28
2019-04-03T02:42:48.648Z,0.50
2019-04-03T02:45:24.183Z,0.50
2019-04-03T02:47:57.147Z,0.70
2019-04-03T02:50:30.717Z,0.82
2019-04-03T02:53:04.062Z,0.80
2019-04-03T02:55:39.750Z,0.75
2019-04-03T02:58:12.699Z,0.80
2019-04-03T03:00:46.207Z,0.88
2019-04-03T03:03:19.748Z,0.88
2019-04-03T03:05:54.738Z,1.07
2019-04-03T03:08:28.263Z,1.12
2019-04-03T03:11:02.040Z,1.40
2019-04-03T03:13:35.877Z,1.40
2019-04-03T03:16:09.322Z,1.50
2019-04-03T03:18:42.771Z,1.77
2019-04-03T03:21:16.189Z,1.77
2019-04-03T03:23:49.683Z,1.40
2019-04-03T03:26:23.110Z,1.60
2019-04-03T03:28:56.864Z,1.70
2019-04-03T03:31:59.173Z,1.95
2019-04-03T03:34:06.458Z,1.72
2019-04-03T03:36:40.601Z,2.05
2019-04-03T03:39:14.202Z,2.40
2019-04-03T03:41:47.658Z,2.35
2019-04-03T03:44:21.103Z,2.60
2019-04-03T03:46:55.104Z,2.98
2019-04-03T03:49:28.650Z,2.42
2019-04-03T03:52:04.471Z,2.42
2019-04-03T03:54:37.400Z,2.15
2019-04-03T03:57:11.107Z,2.52
2019-04-03T03:59:44.928Z,2.22
2019-04-03T04:02:18.618Z,2.10
2019-04-03T04:04:52.043Z,2.20
2019-04-03T04:07:25.966Z,2.33
2019-04-03T04:09:59.600Z,2.02
2019-04-03T04:12:33.350Z,2.70
2019-04-03T04:15:06.789Z,2.55
2019-04-03T04:17:40.443Z,2.20
2019-04-03T04:20:13.890Z,2.00
2019-04-03T04:22:50.431Z,2.42
2019-04-03T04:25:23.630Z,2.33
2019-04-03T04:27:57.090Z,1.85
2019-04-03T04:30:30.762Z,1.80
2019-04-03T04:33:04.319Z,1.80
2019-04-03T04:35:38.095Z,2.22
2019-04-03T04:38:11.549Z,2.15
2019-04-03T04:40:45.057Z,2.08
2019-04-03T04:43:19.440Z,1.85
2019-04-03T04:45:52.994Z,2.70
2019-04-03T04:48:26.663Z,2.47
2019-04-03T04:51:00.086Z,2.77
2019-04-03T04:53:33.418Z,2.50
2019-04-03T04:56:07.417Z,2.47
2019-04-03T04:58:43.046Z,2.52
2019-04-03T05:01:17.855Z,2.10
2019-04-03T05:03:51.958Z,2.50
2019-04-03T05:06:28.646Z,2.30
2019-04-03T05:09:03.237Z,2.30
2019-04-03T05:11:39.094Z,2.08
2019-04-03T05:14:12.159Z,2.00
2019-04-03T05:16:45.633Z,2.72
2019-04-03T05:19:19.625Z,2.17
2019-04-03T05:21:53.522Z,2.42
2019-04-03T05:24:28.904Z,1.92
2019-04-03T05:27:03.425Z,2.42
2019-04-03T05:29:37.220Z,2.52
2019-04-03T05:32:10.888Z,2.05
2019-04-03T05:34:44.744Z,2.40
2019-04-03T05:37:20.239Z,2.20
2019-04-03T05:39:55.671Z,2.08
2019-04-03T05:42:29.248Z,1.92
2019-04-03T05:45:04.936Z,2.20
2019-04-03T05:47:39.283Z,2.47
2019-04-03T05:50:14.138Z,2.05
2019-04-03T05:52:47.622Z,2.55
2019-04-03T05:55:21.052Z,2.25
2019-04-03T05:57:54.396Z,1.85
2019-04-03T06:00:27.871Z,1.50
2019-04-03T06:03:01.361Z,1.72
2019-04-03T06:05:34.918Z,1.98
2019-04-03T06:08:10.208Z,1.45
2019-04-03T06:10:44.011Z,1.80
2019-04-03T06:13:17.636Z,1.65
2019-04-03T06:15:53.212Z,1.75
2019-04-03T06:18:27.018Z,1.40
2019-04-03T06:21:01.631Z,1.65
2019-04-03T06:23:35.200Z,1.85
2019-04-03T06:26:08.582Z,2.20
2019-04-03T06:28:43.042Z,2.12
2019-04-03T06:31:18.985Z,2.33
2019-04-03T06:33:52.437Z,1.60
2019-04-03T06:36:26.021Z,1.60
2019-04-03T06:38:59.773Z,1.50
2019-04-03T06:41:33.245Z,1.60
2019-04-03T06:44:06.644Z,1.92
2019-04-03T06:46:40.764Z,1.87
2019-04-03T06:49:14.407Z,1.77
2019-04-03T06:51:49.423Z,1.60
2019-04-03T06:54:23.283Z,2.02
2019-04-03T06:56:56.956Z,2.27
2019-04-03T06:59:30.545Z,2.40
2019-04-03T07:02:04.322Z,2.10
2019-04-03T07:04:38.814Z,2.12
2019-04-03T07:07:12.768Z,2.20
2019-04-03T07:09:46.634Z,2.05
2019-04-03T07:12:20.223Z,1.87
2019-04-03T07:14:55.456Z,2.30
2019-04-03T07:17:31.407Z,2.25
2019-04-03T07:20:13.459Z,2.15
2019-04-03T07:22:40.981Z,2.22
2019-04-03T07:25:14.869Z,1.90
2019-04-03T07:27:48.356Z,1.90
2019-04-03T07:30:22.429Z,1.77
2019-04-03T07:32:57.913Z,2.00
2019-04-03T07:35:31.453Z,1.80
2019-04-03T07:38:04.802Z,2.77
2019-04-03T07:40:39.895Z,1.80
2019-04-03T07:43:13.841Z,2.10
2019-04-03T07:45:47.603Z,1.82
2019-04-03T07:48:21.038Z,2.12
2019-04-03T07:50:55.241Z,1.55
2019-04-03T07:53:29.326Z,1.85
2019-04-03T07:56:03.123Z,2.10
2019-04-03T07:58:36.570Z,1.92
2019-04-03T08:01:11.096Z,1.65
2019-04-03T08:03:45.187Z,1.85
2019-04-03T08:06:18.830Z,1.80
2019-04-03T08:09:05.850Z,1.70
2019-04-03T08:11:28.056Z,1.85
2019-04-03T08:14:01.517Z,2.17
2019-04-03T08:16:35.231Z,1.45
2019-04-03T08:19:08.843Z,2.00
2019-04-03T08:21:43.308Z,1.82
2019-04-03T08:24:16.893Z,1.95
2019-04-03T08:26:51.980Z,1.60
2019-04-03T08:29:25.843Z,2.33
2019-04-03T08:31:59.251Z,2.05
2019-04-03T08:34:32.766Z,2.00
2019-04-03T08:37:06.171Z,2.05
2019-04-03T08:39:39.737Z,2.00
2019-04-03T08:42:13.365Z,1.92
2019-04-03T08:44:46.821Z,1.80
2019-04-03T08:47:20.191Z,1.80
2019-04-03T08:49:56.426Z,1.90
2019-04-03T08:52:28.621Z,2.10
2019-04-03T08:55:01.975Z,1.82
2019-04-03T08:57:37.698Z,2.40
2019-04-03T09:00:11.415Z,2.05
2019-04-03T09:02:44.843Z,2.15
2019-04-03T09:05:19.674Z,1.90
2019-04-03T09:07:56.113Z,2.30
2019-04-03T09:10:32.667Z,1.90
2019-04-03T09:13:17.004Z,2.17
2019-04-03T09:15:41.925Z,2.15
2019-04-03T09:18:15.401Z,1.80
2019-04-03T09:20:49.037Z,1.75
2019-04-03T09:23:24.627Z,2.40
2019-04-03T09:25:57.753Z,1.98
2019-04-03T09:28:31.082Z,1.52
2019-04-03T09:31:04.580Z,1.50
2019-04-03T09:33:37.865Z,2.00
2019-04-03T09:36:11.347Z,1.90
2019-04-03T09:38:44.937Z,1.37
2019-04-03T09:41:19.671Z,1.45
2019-04-03T09:43:54.633Z,1.77
2019-04-03T09:46:30.471Z,1.62
2019-04-03T09:49:03.477Z,1.50
2019-04-03T09:51:37.247Z,1.65
2019-04-03T09:54:10.873Z,2.15
2019-04-03T09:56:57.197Z,1.75
2019-04-03T09:59:19.506Z,1.55
2019-04-03T10:01:52.856Z,1.55
2019-04-03T10:04:27.855Z,1.70
2019-04-03T10:07:02.285Z,1.75
2019-04-03T10:09:38.350Z,2.00
2019-04-03T10:12:11.366Z,1.20
2019-04-03T10:14:46.110Z,1.27
2019-04-03T10:17:19.756Z,1.70
2019-04-03T10:19:53.129Z,1.25
2019-04-03T10:22:26.643Z,1.87
2019-04-03T10:25:00.665Z,1.45
2019-04-03T10:27:35.718Z,1.45
2019-04-03T10:30:13.162Z,1.85
2019-04-03T10:32:46.851Z,1.42
2019-04-03T10:35:20.542Z,1.90
2019-04-03T10:37:54.099Z,1.30
2019-04-03T10:40:27.515Z,1.42
2019-04-03T10:43:02.822Z,1.90
2019-04-03T10:45:36.133Z,1.40
2019-04-03T10:48:09.472Z,1.65
2019-04-03T10:50:42.821Z,1.57
2019-04-03T10:53:17.886Z,1.62
2019-04-03T10:55:51.398Z,1.75
2019-04-03T10:58:25.030Z,1.30
2019-04-03T11:00:59.103Z,1.27
2019-04-03T11:03:33.945Z,1.32
2019-04-03T11:06:08.985Z,1.40
2019-04-03T11:08:42.337Z,1.27
2019-04-03T11:11:15.955Z,1.00
2019-04-03T11:13:49.775Z,1.70
2019-04-03T11:16:23.193Z,1.32
2019-04-03T11:18:59.973Z,1.42
2019-04-03T11:21:32.209Z,1.00
2019-04-03T11:24:06.673Z,1.30
2019-04-03T11:26:41.831Z,1.47
2019-04-03T11:29:15.187Z,1.00
2019-04-03T11:31:48.704Z,1.40
2019-04-03T11:34:22.287Z,1.47
2019-04-03T11:36:55.742Z,1.45
2019-04-03T11:39:29.191Z,1.20
2019-04-03T11:42:03.045Z,1.65
2019-04-03T11:44:36.579Z,1.35
2019-04-03T11:47:12.355Z,1.62
2019-04-03T11:49:45.012Z,1.60
2019-04-03T11:52:18.481Z,1.40
2019-04-03T11:54:53.012Z,1.57
2019-04-03T11:57:27.309Z,1.15
2019-04-03T12:00:01.143Z,1.40
2019-04-03T12:02:34.536Z,0.90
2019-04-03T12:05:08.018Z,1.00
2019-04-03T12:07:41.337Z,0.93
2019-04-03T12:10:14.874Z,1.30
2019-04-03T12:12:48.237Z,1.17
2019-04-03T12:15:22.380Z,1.00
2019-04-03T12:17:56.144Z,1.20
2019-04-03T12:20:29.865Z,0.80
2019-04-03T12:23:05.288Z,0.90
2019-04-03T12:25:40.584Z,0.90
2019-04-03T12:28:17.768Z,0.70
2019-04-03T12:30:49.619Z,0.70
2019-04-03T12:33:23.322Z,0.62
2019-04-03T12:35:56.694Z,0.78
2019-04-03T12:38:31.067Z,0.60
2019-04-03T12:41:05.314Z,0.50
2019-04-03T12:43:38.883Z,0.65
2019-04-03T12:46:12.548Z,0.60
2019-04-03T12:48:46.129Z,0.68
2019-04-03T12:51:20.412Z,0.55
2019-04-03T12:53:54.383Z,0.60
2019-04-03T12:56:30.026Z,0.30
2019-04-03T12:59:03.279Z,0.40
2019-04-03T13:01:36.662Z,0.30
2019-04-03T13:04:10.413Z,0.33
2019-04-03T13:06:43.722Z,0.53
2019-04-03T13:09:17.443Z,0.40
2019-04-03T13:11:52.471Z,0.50
2019-04-03T13:14:27.206Z,0.80
2019-04-03T13:17:01.566Z,0.40
2019-04-03T13:19:35.438Z,0.50
2019-04-03T13:22:10.972Z,0.40
2019-04-03T13:24:44.355Z,0.37
2019-04-03T13:27:18.776Z,0.47
2019-04-03T13:29:52.359Z,0.40
2019-04-03T13:32:25.802Z,0.30
2019-04-03T13:34:59.481Z,0.50
2019-04-03T13:37:33.271Z,0.50
2019-04-03T13:40:07.718Z,0.40
2019-04-03T13:42:41.228Z,0.98
2019-04-03T13:45:14.997Z,0.50
2019-04-03T13:47:49.333Z,0.30
2019-04-03T13:50:23.578Z,0.42
2019-04-03T13:52:58.093Z,0.60
2019-04-03T13:55:34.528Z,0.62
2019-04-03T13:58:07.044Z,1.05
2019-04-03T14:00:40.842Z,0.60
2019-04-03T14:03:17.818Z,1.22
2019-04-03T14:05:50.428Z,1.00
2019-04-03T14:08:24.052Z,0.90
2019-04-03T14:10:58.846Z,1.30
2019-04-03T14:13:32.449Z,0.98
2019-04-03T14:16:18.631Z,0.70
2019-04-03T14:18:42.383Z,0.93
2019-04-03T14:21:15.702Z,0.93
2019-04-03T14:23:49.093Z,0.90
2019-04-03T14:26:22.628Z,0.90
2019-04-03T14:28:55.992Z,1.30
2019-04-03T14:31:36.085Z,0.90
2019-04-03T14:34:05.154Z,0.93
2019-04-03T14:36:38.621Z,0.80
2019-04-03T14:39:12.336Z,1.00
2019-04-03T14:41:45.841Z,0.70
2019-04-03T14:44:19.638Z,0.60
2019-04-03T14:46:53.345Z,1.22
2019-04-03T14:49:26.714Z,0.60
2019-04-03T14:52:00.069Z,0.85
2019-04-03T14:54:33.544Z,0.90
2019-04-03T14:57:17.840Z,0.75
2019-04-03T14:59:43.180Z,0.60
2019-04-03T15:02:16.865Z,0.90
2019-04-03T15:04:50.282Z,0.72
2019-04-03T15:07:24.086Z,0.60
2019-04-03T15:09:59.437Z,0.80
2019-04-03T15:12:32.612Z,1.15
2019-04-03T15:15:06.115Z,0.80
2019-04-03T15:17:39.993Z,1.00
2019-04-03T15:20:13.390Z,0.60
2019-04-03T15:22:47.313Z,0.50
2019-04-03T15:25:20.908Z,0.50
2019-04-03T15:27:54.425Z,0.60
2019-04-03T15:30:29.250Z,0.60
2019-04-03T15:33:02.860Z,0.80
2019-04-03T15:35:36.257Z,0.50
2019-04-03T15:38:13.411Z,0.70
2019-04-03T15:40:46.743Z,0.65
2019-04-03T15:43:20.560Z,0.60
2019-04-03T15:45:56.589Z,0.60
2019-04-03T15:48:30.226Z,0.40
2019-04-03T15:51:06.264Z,0.80
2019-04-03T15:53:39.459Z,0.50
2019-04-03T15:56:15.573Z,0.42
2019-04-03T15:58:51.524Z,0.50
2019-04-03T16:01:26.581Z,0.55
2019-04-03T16:04:00.234Z,0.50
2019-04-03T16:06:35.954Z,0.47
2019-04-03T16:09:09.089Z,0.42
2019-04-03T16:11:42.643Z,0.40
2019-04-03T16:14:16.878Z,0.57
2019-04-03T16:16:53.948Z,0.60
2019-04-03T16:19:27.522Z,0.50
2019-04-03T16:22:02.716Z,1.00
2019-04-03T16:24:36.393Z,0.57
2019-04-03T16:27:09.845Z,0.50
2019-04-03T16:29:43.753Z,0.80
2019-04-03T16:32:26.926Z,0.45
2019-04-03T16:35:06.196Z,0.70
2019-04-03T16:37:42.729Z,0.70
2019-04-03T16:40:18.060Z,0.47
2019-04-03T16:42:52.983Z,0.72
2019-04-03T16:45:27.210Z,0.88
2019-04-03T16:48:00.943Z,0.60
2019-04-03T16:50:34.806Z,0.82
2019-04-03T16:53:08.224Z,1.32
2019-04-03T16:55:41.540Z,0.98
2019-04-03T16:58:14.942Z,0.60
2019-04-03T17:00:48.299Z,0.88
2019-04-03T17:03:22.340Z,0.90
2019-04-03T17:05:55.805Z,0.82
2019-04-03T17:08:29.398Z,0.80
2019-04-03T17:11:03.117Z,0.90
2019-04-03T17:13:36.537Z,0.70
2019-04-03T17:16:16.255Z,0.80
2019-04-03T17:18:49.974Z,0.75
2019-04-03T17:21:23.878Z,0.60
2019-04-03T17:23:57.938Z,0.75
2019-04-03T17:26:32.734Z,0.53
2019-04-03T17:29:06.908Z,0.72
2019-04-03T17:31:58.167Z,0.62
2019-04-03T17:34:32.050Z,0.50
2019-04-03T17:37:05.446Z,0.60
2019-04-03T17:39:38.863Z,0.85
2019-04-03T17:42:12.284Z,0.80
2019-04-03T17:44:53.570Z,0.50
2019-04-03T17:47:30.253Z,0.40
2019-04-03T17:50:09.276Z,0.55
2019-04-03T17:52:46.563Z,1.05
2019-04-03T17:55:20.030Z,0.70
2019-04-03T17:57:53.443Z,0.50
2019-04-03T18:00:26.931Z,0.75
2019-04-03T18:03:00.414Z,0.50
2019-04-03T18:05:34.179Z,0.85
2019-04-03T18:08:09.094Z,0.40
2019-04-03T18:10:43.312Z,0.50
2019-04-03T18:13:17.486Z,0.40
2019-04-03T18:15:51.060Z,0.47
2019-04-03T18:18:24.868Z,0.40
2019-04-03T18:20:58.210Z,0.57
2019-04-03T18:23:31.545Z,0.93
2019-04-03T18:26:04.944Z,0.98
2019-04-03T18:28:38.556Z,0.62
2019-04-03T18:31:13.578Z,0.95
2019-04-03T18:33:48.771Z,0.90
2019-04-03T18:36:27.305Z,0.72
2019-04-03T18:39:00.250Z,0.90
2019-04-03T18:41:37.624Z,0.80
2019-04-03T18:44:21.510Z,0.62
2019-04-03T18:46:50.149Z,0.90
2019-04-03T18:49:23.636Z,0.60
2019-04-03T18:51:57.175Z,0.90
2019-04-03T18:54:30.795Z,0.98
2019-04-03T18:57:04.687Z,0.60
2019-04-03T18:59:38.083Z,0.80
2019-04-03T19:02:11.397Z,0.98
2019-04-03T19:04:44.881Z,0.65
2019-04-03T19:07:20.240Z,0.80
2019-04-03T19:10:06.058Z,0.80
2019-04-03T19:12:35.910Z,1.02
2019-04-03T19:15:06.020Z,0.80
2019-04-03T19:17:40.890Z,1.10
2019-04-03T19:20:14.197Z,1.30
2019-04-03T19:22:47.582Z,0.65
2019-04-03T19:25:21.063Z,1.40
2019-04-03T19:27:54.267Z,1.30
2019-04-03T19:30:28.722Z,1.32
2019-04-03T19:33:02.214Z,0.95
2019-04-03T19:35:35.602Z,0.90
2019-04-03T19:38:08.974Z,0.90
2019-04-03T19:40:42.572Z,1.00
2019-04-03T19:43:15.964Z,1.00
2019-04-03T19:45:51.763Z,0.90
2019-04-03T19:48:26.255Z,0.80
2019-04-03T19:51:02.725Z,1.02
2019-04-03T19:53:35.890Z,0.85
2019-04-03T19:56:09.705Z,0.95
2019-04-03T19:58:43.386Z,0.80
2019-04-03T20:01:16.858Z,1.15
2019-04-03T20:03:50.526Z,1.10
2019-04-03T20:06:23.754Z,1.25
2019-04-03T20:08:57.274Z,0.95
2019-04-03T20:11:34.097Z,1.10
2019-04-03T20:14:11.331Z,1.05
2019-04-03T20:16:43.527Z,0.90
2019-04-03T20:19:16.854Z,1.00
2019-04-03T20:21:50.282Z,1.30
2019-04-03T20:24:25.359Z,1.00
2019-04-03T20:26:58.983Z,1.00
2019-04-03T20:29:32.380Z,1.27
2019-04-03T20:32:07.046Z,1.25
2019-04-03T20:34:40.818Z,1.07
2019-04-03T20:37:14.405Z,1.10
2019-04-03T20:39:47.721Z,1.20
2019-04-03T20:42:21.110Z,1.12
2019-04-03T20:44:54.611Z,1.37
2019-04-03T20:47:27.972Z,1.00
2019-04-03T20:50:01.519Z,1.10
2019-04-03T20:52:35.080Z,1.40
2019-04-03T20:55:08.378Z,1.17
2019-04-03T20:57:54.987Z,0.95
2019-04-03T21:00:19.165Z,1.00
2019-04-03T21:02:52.798Z,1.00
2019-04-03T21:05:26.108Z,1.30
2019-04-03T21:07:59.587Z,1.42
2019-04-03T21:10:32.947Z,1.17
2019-04-03T21:13:06.886Z,1.20
2019-04-03T21:15:41.737Z,1.00
2019-04-03T21:18:15.135Z,1.12
2019-04-03T21:20:48.648Z,1.07
2019-04-03T21:23:22.108Z,0.78
2019-04-03T21:25:55.637Z,1.20
2019-04-03T21:28:29.098Z,1.00
2019-04-03T21:31:02.432Z,1.55
2019-04-03T21:33:35.915Z,1.02
2019-04-03T21:36:09.791Z,1.15
2019-04-03T21:38:43.188Z,1.10
2019-04-03T21:41:16.780Z,1.15
2019-04-03T21:43:50.276Z,1.10
2019-04-03T21:46:23.773Z,1.30
2019-04-03T21:48:57.142Z,0.90
2019-04-03T21:51:30.703Z,1.20
2019-04-03T21:54:04.577Z,1.20
2019-04-03T21:56:37.931Z,1.45
2019-04-03T21:59:11.531Z,1.10
2019-04-03T22:01:45.432Z,0.90
2019-04-03T22:04:20.925Z,1.02
2019-04-03T22:06:57.607Z,1.10
2019-04-03T22:09:30.738Z,1.02
2019-04-03T22:12:06.019Z,0.90
2019-04-03T22:14:40.976Z,1.02
2019-04-03T22:17:15.203Z,1.00
2019-04-03T22:19:48.548Z,0.80
2019-04-03T22:22:22.425Z,0.88
2019-04-03T22:24:56.132Z,0.82
2019-04-03T22:27:29.529Z,0.70
2019-04-03T22:30:03.128Z,0.70
2019-04-03T22:32:39.167Z,0.80
2019-04-03T22:35:12.689Z,0.98
2019-04-03T22:37:46.175Z,0.90
2019-04-03T22:40:20.078Z,0.85
2019-04-03T22:42:53.392Z,0.85
2019-04-03T22:45:26.860Z,0.88
2019-04-03T22:48:00.133Z,0.70
2019-04-03T22:50:35.318Z,0.95
2019-04-03T22:53:10.760Z,1.00
2019-04-03T22:55:46.526Z,1.00
2019-04-03T22:58:21.648Z,0.72
2019-04-03T23:00:55.341Z,0.78
2019-04-03T23:03:28.906Z,0.90
2019-04-03T23:06:02.850Z,0.95
2019-04-03T23:08:36.350Z,0.93
2019-04-03T23:11:09.773Z,0.90
2019-04-03T23:13:43.044Z,1.25
2019-04-03T23:16:16.657Z,0.90
2019-04-03T23:18:50.211Z,0.98
2019-04-03T23:21:24.250Z,0.98
2019-04-03T23:23:58.436Z,0.85
2019-04-03T23:26:32.829Z,1.10
2019-04-03T23:29:07.304Z,1.10
2019-04-03T23:31:40.505Z,1.30
2019-04-03T23:34:13.918Z,1.20
2019-04-03T23:36:47.216Z,0.90
2019-04-03T23:39:20.798Z,0.80
2019-04-03T23:41:54.213Z,0.82
2019-04-03T23:44:27.503Z,1.07
2019-04-03T23:47:00.980Z,0.85
2019-04-03T23:49:34.590Z,1.10
2019-04-03T23:52:07.930Z,0.90
2019-04-03T23:54:41.376Z,0.85
2019-04-03T23:57:14.824Z,1.10
2019-04-03T23:59:48.405Z,0.82
